Time;durP1;ratioP1;P1;durP2;ratioP2;P2;SDS_P1;SDS_P2;PMS_P1;PMS_P2;Temp;Humidity;BMP_temperature;BMP_pressure;BME280_temperature;BME280_humidity;BME280_pressure;Samples;Min_cycle;Max_cycle;Signal;HPM_P1;HPM_P2
2023/05/30 00:01:00;;;;;;;14.70;8.70;;;;;;;-128.00;-1.00;-1.00;105421;1253;1004861;-79
2023/05/30 00:03:31;;;;;;;16.40;9.20;;;;;;;-128.00;-1.00;-1.00;105423;1256;1060794;-79
2023/05/30 00:05:57;;;;;;;14.50;9.50;;;;;;;-128.00;-1.00;-1.00;105449;1253;1004871;-79
2023/05/30 00:08:26;;;;;;;17.40;9.60;;;;;;;-128.00;-1.00;-1.00;105428;1254;1004057;-78
2023/05/30 00:10:52;;;;;;;;;;;;;;;-128.00;-1.00;-1.00;105409;1252;1045660;-78
2023/05/30 00:13:22;;;;;;;20.30;10.40;;;;;;;-128.00;-1.00;-1.00;105446;1255;1004324;-79
2023/05/30 00:15:49;;;;;;;15.90;10.30;;;;;;;-128.00;-1.00;-1.00;105649;1255;1061330;-79
2023/05/30 00:18:16;;;;;;;15.40;10.30;;;;;;;-128.00;-1.00;-1.00;105558;1254;1003917;-79
2023/05/30 00:20:44;;;;;;;18.00;11.20;;;;;;;-128.00;-1.00;-1.00;105386;1254;1003524;-78
2023/05/30 00:23:11;;;;;;;20.50;10.10;;;;;;;-128.00;-1.00;-1.00;105662;1254;1003113;-79
2023/05/30 00:25:37;;;;;;;19.40;10.30;;;;;;;-128.00;-1.00;-1.00;105558;1253;1004049;-80
2023/05/30 00:28:07;;;;;;;18.80;9.80;;;;;;;-128.00;-1.00;-1.00;105466;1253;1004876;-79
2023/05/30 00:30:33;;;;;;;18.10;9.00;;;;;;;-128.00;-1.00;-1.00;105613;1254;1058616;-78
2023/05/30 00:33:00;;;;;;;15.10;9.00;;;;;;;-128.00;-1.00;-1.00;105724;1255;1004358;-79
2023/05/30 00:35:26;;;;;;;15.40;9.30;;;;;;;-128.00;-1.00;-1.00;105706;1253;1004870;-78
2023/05/30 00:37:52;;;;;;;20.20;9.30;;;;;;;-128.00;-1.00;-1.00;105532;1256;1003934;-78
2023/05/30 00:40:19;;;;;;;15.50;8.90;;;;;;;-128.00;-1.00;-1.00;105371;1253;1004904;-79
2023/05/30 00:42:45;;;;;;;16.40;10.30;;;;;;;-128.00;-1.00;-1.00;105534;1256;1003701;-79
2023/05/30 00:45:12;;;;;;;17.60;9.80;;;;;;;-128.00;-1.00;-1.00;105533;1254;1006723;-79
2023/05/30 00:47:38;;;;;;;14.60;8.70;;;;;;;-128.00;-1.00;-1.00;105340;1252;1003757;-79
2023/05/30 00:50:06;;;;;;;16.90;8.90;;;;;;;-128.00;-1.00;-1.00;105454;1254;1004933;-78
2023/05/30 00:52:33;;;;;;;15.20;8.40;;;;;;;-128.00;-1.00;-1.00;105440;1254;1005220;-79
2023/05/30 00:55:02;;;;;;;13.60;8.50;;;;;;;-128.00;-1.00;-1.00;105420;1256;1004042;-78
2023/05/30 00:57:29;;;;;;;14.60;8.60;;;;;;;-128.00;-1.00;-1.00;105405;1254;1059471;-79
2023/05/30 00:59:56;;;;;;;18.10;9.50;;;;;;;-128.00;-1.00;-1.00;105459;1254;1004679;-80
2023/05/30 01:02:23;;;;;;;16.60;8.60;;;;;;;-128.00;-1.00;-1.00;105469;1253;1004043;-80
2023/05/30 01:04:50;;;;;;;15.30;9.00;;;;;;;-128.00;-1.00;-1.00;105403;1254;1004334;-78
2023/05/30 01:07:16;;;;;;;15.30;8.90;;;;;;;-128.00;-1.00;-1.00;105340;1254;1004511;-80
2023/05/30 01:09:42;;;;;;;15.90;8.80;;;;;;;-128.00;-1.00;-1.00;105447;1254;1004917;-78
2023/05/30 01:12:33;;;;;;;20.40;9.70;;;;;;;-128.00;-1.00;-1.00;105442;1253;1003950;-79
2023/05/30 01:15:18;;;;;;;20.80;9.50;;;;;;;-128.00;-1.00;-1.00;105431;1255;1047590;-80
2023/05/30 01:18:11;;;;;;;15.60;9.50;;;;;;;-128.00;-1.00;-1.00;105635;1253;1063454;-78
2023/05/30 01:20:44;;;;;;;13.50;7.60;;;;;;;-128.00;-1.00;-1.00;105425;1253;1058129;-80
2023/05/30 01:23:30;;;;;;;18.20;11.00;;;;;;;-128.00;-1.00;-1.00;105726;1254;1059372;-79
2023/05/30 01:26:05;;;;;;;13.50;7.90;;;;;;;-128.00;-1.00;-1.00;105452;1254;1045727;-79
2023/05/30 01:28:33;;;;;;;13.70;8.30;;;;;;;-128.00;-1.00;-1.00;105705;1254;1046645;-79
2023/05/30 01:31:00;;;;;;;14.60;8.40;;;;;;;-128.00;-1.00;-1.00;105683;1253;1004922;-79
2023/05/30 01:33:27;;;;;;;15.30;8.20;;;;;;;-128.00;-1.00;-1.00;105506;1254;1004622;-77
2023/05/30 01:35:53;;;;;;;11.70;7.90;;;;;;;-128.00;-1.00;-1.00;105505;1253;1004840;-78
2023/05/30 01:38:20;;;;;;;12.20;7.80;;;;;;;-128.00;-1.00;-1.00;105525;1255;1004929;-77
2023/05/30 01:40:48;;;;;;;14.90;7.90;;;;;;;-128.00;-1.00;-1.00;105552;1254;1003643;-79
2023/05/30 01:43:28;;;;;;;15.60;7.60;;;;;;;-128.00;-1.00;-1.00;105361;1253;1061452;-78
2023/05/30 01:46:01;;;;;;;17.00;8.90;;;;;;;-128.00;-1.00;-1.00;105502;1254;1060168;-79
2023/05/30 01:48:30;;;;;;;11.30;7.50;;;;;;;-128.00;-1.00;-1.00;105518;1254;1061002;-79
2023/05/30 01:50:56;;;;;;;12.50;7.40;;;;;;;-128.00;-1.00;-1.00;105424;1253;1044656;-78
2023/05/30 01:53:30;;;;;;;11.90;7.30;;;;;;;-128.00;-1.00;-1.00;105263;1254;1004688;-80
2023/05/30 01:55:57;;;;;;;12.80;8.10;;;;;;;-128.00;-1.00;-1.00;105444;1254;1063658;-78
2023/05/30 01:58:24;;;;;;;11.50;6.70;;;;;;;-128.00;-1.00;-1.00;105333;1257;1003240;-79
2023/05/30 02:00:51;;;;;;;12.70;7.90;;;;;;;-128.00;-1.00;-1.00;105226;1253;1004098;-79
2023/05/30 02:03:17;;;;;;;17.50;8.50;;;;;;;-128.00;-1.00;-1.00;105454;1252;1005039;-78
2023/05/30 02:05:44;;;;;;;14.20;7.90;;;;;;;-128.00;-1.00;-1.00;105349;1253;1003719;-79
2023/05/30 02:08:10;;;;;;;15.30;8.20;;;;;;;-128.00;-1.00;-1.00;105466;1254;1005174;-77
2023/05/30 02:10:37;;;;;;;28.20;9.10;;;;;;;-128.00;-1.00;-1.00;105445;1253;1004808;-78
2023/05/30 02:13:03;;;;;;;12.70;7.30;;;;;;;-128.00;-1.00;-1.00;105449;1254;1004645;-79
2023/05/30 02:15:30;;;;;;;12.60;7.20;;;;;;;-128.00;-1.00;-1.00;105636;1253;1004606;-78
2023/05/30 02:17:59;;;;;;;15.20;9.10;;;;;;;-128.00;-1.00;-1.00;105724;1253;1004594;-78
2023/05/30 02:20:25;;;;;;;;;;;;;;;-128.00;-1.00;-1.00;105563;1253;1060945;-77
2023/05/30 02:22:51;;;;;;;16.70;8.70;;;;;;;-128.00;-1.00;-1.00;105406;1254;1005648;-79
2023/05/30 02:25:20;;;;;;;14.50;8.90;;;;;;;-128.00;-1.00;-1.00;105425;1255;1004066;-78
2023/05/30 02:27:50;;;;;;;16.60;9.70;;;;;;;-128.00;-1.00;-1.00;105481;1253;1005200;-80
2023/05/30 02:30:17;;;;;;;13.00;8.00;;;;;;;-128.00;-1.00;-1.00;105228;1253;1047658;-77
2023/05/30 02:32:43;;;;;;;12.30;7.60;;;;;;;-128.00;-1.00;-1.00;105519;1254;1004517;-78
2023/05/30 02:35:10;;;;;;;12.90;8.10;;;;;;;-128.00;-1.00;-1.00;105607;1254;1004944;-78
2023/05/30 02:37:36;;;;;;;12.10;7.90;;;;;;;-128.00;-1.00;-1.00;105708;1253;1004052;-79
2023/05/30 02:40:03;;;;;;;13.30;8.50;;;;;;;-128.00;-1.00;-1.00;105729;1254;1005079;-78
2023/05/30 02:42:30;;;;;;;12.90;8.50;;;;;;;-128.00;-1.00;-1.00;105740;1254;1003520;-79
2023/05/30 02:44:56;;;;;;;12.90;7.80;;;;;;;-128.00;-1.00;-1.00;105761;1253;1003966;-78
2023/05/30 02:47:23;;;;;;;14.90;7.90;;;;;;;-128.00;-1.00;-1.00;105688;1253;1004299;-78
2023/05/30 02:49:49;;;;;;;16.30;8.00;;;;;;;-128.00;-1.00;-1.00;105429;1253;1004025;-77
2023/05/30 02:52:16;;;;;;;13.60;7.60;;;;;;;-128.00;-1.00;-1.00;105447;1254;1003488;-79
2023/05/30 02:54:44;;;;;;;14.90;7.20;;;;;;;-128.00;-1.00;-1.00;105459;1254;1003314;-77
2023/05/30 02:57:10;;;;;;;15.10;8.00;;;;;;;-128.00;-1.00;-1.00;105455;1253;1003759;-79
2023/05/30 02:59:37;;;;;;;15.80;6.70;;;;;;;-128.00;-1.00;-1.00;105493;1253;1004077;-78
2023/05/30 03:02:03;;;;;;;13.70;7.80;;;;;;;-128.00;-1.00;-1.00;105428;1253;1004666;-78
2023/05/30 03:04:30;;;;;;;17.90;8.20;;;;;;;-128.00;-1.00;-1.00;105445;1254;1004349;-77
2023/05/30 03:06:56;;;;;;;14.20;7.60;;;;;;;-128.00;-1.00;-1.00;105473;1254;1003887;-79
2023/05/30 03:09:23;;;;;;;11.90;7.60;;;;;;;-128.00;-1.00;-1.00;105335;1253;1005063;-78
2023/05/30 03:11:49;;;;;;;18.60;9.30;;;;;;;-128.00;-1.00;-1.00;105466;1253;1004865;-80
2023/05/30 03:14:16;;;;;;;11.80;7.30;;;;;;;-128.00;-1.00;-1.00;105453;1253;1003466;-78
2023/05/30 03:16:42;;;;;;;13.90;8.00;;;;;;;-128.00;-1.00;-1.00;105449;1253;1004101;-77
2023/05/30 03:19:08;;;;;;;14.30;7.60;;;;;;;-128.00;-1.00;-1.00;105441;1253;1004397;-78
2023/05/30 03:21:52;;;;;;;11.60;7.80;;;;;;;-128.00;-1.00;-1.00;105399;1253;1062716;-79
2023/05/30 03:24:18;;;;;;;17.90;8.50;;;;;;;-128.00;-1.00;-1.00;105487;1253;1005198;-79
2023/05/30 03:26:45;;;;;;;12.30;8.20;;;;;;;-128.00;-1.00;-1.00;105444;1254;1004174;-79
2023/05/30 03:29:11;;;;;;;12.20;7.70;;;;;;;-128.00;-1.00;-1.00;105425;1256;1004776;-78
2023/05/30 03:31:38;;;;;;;11.60;7.50;;;;;;;-128.00;-1.00;-1.00;105518;1252;1004282;-78
2023/05/30 03:34:04;;;;;;;16.70;9.30;;;;;;;-128.00;-1.00;-1.00;105505;1253;1004380;-77
2023/05/30 03:36:30;;;;;;;15.40;8.40;;;;;;;-128.00;-1.00;-1.00;105531;1254;1004317;-78
2023/05/30 03:38:57;;;;;;;17.70;7.20;;;;;;;-128.00;-1.00;-1.00;105538;1253;1005898;-79
2023/05/30 03:41:23;;;;;;;15.00;8.00;;;;;;;-128.00;-1.00;-1.00;105574;1253;1047421;-80
2023/05/30 03:43:50;;;;;;;20.20;9.50;;;;;;;-128.00;-1.00;-1.00;105523;1252;1004565;-81
2023/05/30 03:46:19;;;;;;;15.80;10.00;;;;;;;-128.00;-1.00;-1.00;105519;1254;1004808;-79
2023/05/30 03:48:46;;;;;;;19.60;12.20;;;;;;;-128.00;-1.00;-1.00;105506;1253;1061107;-79
2023/05/30 03:51:12;;;;;;;19.30;11.70;;;;;;;-128.00;-1.00;-1.00;105467;1252;1005058;-78
2023/05/30 03:53:38;;;;;;;20.50;10.60;;;;;;;-128.00;-1.00;-1.00;105473;1253;1004649;-78
2023/05/30 03:56:06;;;;;;;18.10;10.80;;;;;;;-128.00;-1.00;-1.00;105507;1253;1005238;-79
2023/05/30 03:58:32;;;;;;;12.10;9.10;;;;;;;-128.00;-1.00;-1.00;105430;1254;1004343;-79
2023/05/30 04:01:01;;;;;;;13.50;9.80;;;;;;;-128.00;-1.00;-1.00;105385;1253;1004013;-78
2023/05/30 04:03:28;;;;;;;19.60;8.40;;;;;;;-128.00;-1.00;-1.00;105494;1254;1045033;-78
2023/05/30 04:05:58;;;;;;;14.40;8.10;;;;;;;-128.00;-1.00;-1.00;105444;1252;1003854;-78
2023/05/30 04:08:25;;;;;;;11.70;7.70;;;;;;;-128.00;-1.00;-1.00;105462;1253;1061769;-78
2023/05/30 04:10:52;;;;;;;13.80;8.10;;;;;;;-128.00;-1.00;-1.00;105465;1253;1004955;-79
2023/05/30 04:13:18;;;;;;;13.60;8.70;;;;;;;-128.00;-1.00;-1.00;105540;1253;1004631;-79
2023/05/30 04:15:45;;;;;;;15.70;8.90;;;;;;;-128.00;-1.00;-1.00;105461;1253;1003901;-79
2023/05/30 04:18:11;;;;;;;13.70;8.60;;;;;;;-128.00;-1.00;-1.00;105468;1253;1004649;-79
2023/05/30 04:20:37;;;;;;;15.40;9.30;;;;;;;-128.00;-1.00;-1.00;105504;1254;1003830;-79
2023/05/30 04:23:04;;;;;;;14.70;8.60;;;;;;;-128.00;-1.00;-1.00;105466;1253;1004234;-79
2023/05/30 04:25:30;;;;;;;12.20;8.40;;;;;;;-128.00;-1.00;-1.00;105442;1254;1003593;-78
2023/05/30 04:27:58;;;;;;;16.20;8.40;;;;;;;-128.00;-1.00;-1.00;105440;1253;1004135;-78
2023/05/30 04:30:24;;;;;;;15.50;9.30;;;;;;;-128.00;-1.00;-1.00;105443;1253;1003800;-78
2023/05/30 04:32:50;;;;;;;19.60;8.50;;;;;;;-128.00;-1.00;-1.00;105498;1254;1003538;-77
2023/05/30 04:35:17;;;;;;;18.80;8.30;;;;;;;-128.00;-1.00;-1.00;105393;1253;1005286;-79
2023/05/30 04:37:44;;;;;;;11.70;8.20;;;;;;;-128.00;-1.00;-1.00;105515;1253;1004791;-79
2023/05/30 04:40:12;;;;;;;12.20;8.30;;;;;;;-128.00;-1.00;-1.00;105530;1253;1005064;-78
2023/05/30 04:42:40;;;;;;;12.80;8.60;;;;;;;-128.00;-1.00;-1.00;105519;1253;1004928;-79
2023/05/30 04:45:10;;;;;;;13.90;8.40;;;;;;;-128.00;-1.00;-1.00;105506;1254;1003930;-80
2023/05/30 04:47:38;;;;;;;11.90;8.60;;;;;;;-128.00;-1.00;-1.00;105523;1253;1058930;-78
2023/05/30 04:50:05;;;;;;;12.80;7.30;;;;;;;-128.00;-1.00;-1.00;105453;1254;1004065;-79
2023/05/30 04:52:32;;;;;;;15.40;8.50;;;;;;;-128.00;-1.00;-1.00;105459;1253;1004030;-78
2023/05/30 04:54:58;;;;;;;11.70;7.60;;;;;;;-128.00;-1.00;-1.00;105343;1253;1004072;-79
2023/05/30 04:57:24;;;;;;;10.40;7.50;;;;;;;-128.00;-1.00;-1.00;105466;1253;1004463;-78
2023/05/30 04:59:52;;;;;;;14.00;8.10;;;;;;;-128.00;-1.00;-1.00;105407;1253;1004294;-79
2023/05/30 05:02:19;;;;;;;18.80;8.20;;;;;;;-128.00;-1.00;-1.00;105398;1253;1003957;-78
2023/05/30 05:04:45;;;;;;;14.30;8.60;;;;;;;-128.00;-1.00;-1.00;105326;1254;1004923;-80
2023/05/30 05:07:12;;;;;;;13.90;7.70;;;;;;;-128.00;-1.00;-1.00;105263;1253;1004397;-80
2023/05/30 05:09:38;;;;;;;11.30;7.10;;;;;;;-128.00;-1.00;-1.00;105451;1253;1004672;-78
2023/05/30 05:12:05;;;;;;;11.50;6.90;;;;;;;-128.00;-1.00;-1.00;105387;1254;1003400;-79
2023/05/30 05:14:31;;;;;;;17.10;9.40;;;;;;;-128.00;-1.00;-1.00;105343;1253;1004358;-78
2023/05/30 05:16:58;;;;;;;12.60;8.30;;;;;;;-128.00;-1.00;-1.00;105286;1252;1004613;-81
2023/05/30 05:19:24;;;;;;;13.70;9.30;;;;;;;-128.00;-1.00;-1.00;105167;1253;1005013;-78
2023/05/30 05:21:51;;;;;;;16.90;10.60;;;;;;;-128.00;-1.00;-1.00;105460;1253;1004754;-78
2023/05/30 05:24:17;;;;;;;17.50;10.20;;;;;;;-128.00;-1.00;-1.00;105519;1253;1003769;-81
2023/05/30 05:26:43;;;;;;;16.30;9.40;;;;;;;-128.00;-1.00;-1.00;105538;1252;1004381;-80
2023/05/30 05:29:10;;;;;;;21.40;8.10;;;;;;;-128.00;-1.00;-1.00;105531;1252;1004055;-79
2023/05/30 05:31:37;;;;;;;12.70;8.40;;;;;;;-128.00;-1.00;-1.00;105487;1252;1004113;-81
2023/05/30 05:34:03;;;;;;;17.10;8.90;;;;;;;-128.00;-1.00;-1.00;105495;1253;1004617;-79
2023/05/30 05:36:30;;;;;;;13.40;9.10;;;;;;;-128.00;-1.00;-1.00;105450;1253;1004424;-80
2023/05/30 05:38:56;;;;;;;18.60;8.70;;;;;;;-128.00;-1.00;-1.00;104995;1254;1003496;-80
2023/05/30 05:41:23;;;;;;;13.40;7.60;;;;;;;-128.00;-1.00;-1.00;105147;1253;1004483;-78
2023/05/30 05:43:49;;;;;;;16.30;8.80;;;;;;;-128.00;-1.00;-1.00;105508;1253;1003977;-80
2023/05/30 05:46:15;;;;;;;11.30;8.00;;;;;;;-128.00;-1.00;-1.00;105419;1253;1004574;-78
2023/05/30 05:48:42;;;;;;;17.00;8.10;;;;;;;-128.00;-1.00;-1.00;105354;1253;1003613;-78
2023/05/30 05:51:08;;;;;;;15.70;9.00;;;;;;;-128.00;-1.00;-1.00;105448;1253;1004559;-78
2023/05/30 05:53:34;;;;;;;17.10;8.60;;;;;;;-128.00;-1.00;-1.00;105426;1253;1004275;-78
2023/05/30 05:56:01;;;;;;;16.80;9.10;;;;;;;-128.00;-1.00;-1.00;105467;1252;1004663;-80
2023/05/30 05:58:27;;;;;;;14.30;8.80;;;;;;;-128.00;-1.00;-1.00;105493;1253;1005045;-78
2023/05/30 06:00:54;;;;;;;14.70;9.40;;;;;;;-128.00;-1.00;-1.00;105225;1253;1059382;-80
2023/05/30 06:03:20;;;;;;;16.10;9.20;;;;;;;-128.00;-1.00;-1.00;105409;1253;1004129;-78
2023/05/30 06:05:47;;;;;;;16.00;8.40;;;;;;;-128.00;-1.00;-1.00;105417;1253;1003376;-78
2023/05/30 06:08:13;;;;;;;16.70;8.70;;;;;;;-128.00;-1.00;-1.00;105332;1253;1004479;-78
2023/05/30 06:10:40;;;;;;;11.40;8.10;;;;;;;-128.00;-1.00;-1.00;105406;1253;1005247;-78
2023/05/30 06:13:07;;;;;;;18.80;8.90;;;;;;;-128.00;-1.00;-1.00;105410;1253;1004375;-79
2023/05/30 06:15:33;;;;;;;14.80;8.00;;;;;;;-128.00;-1.00;-1.00;105419;1253;1003905;-78
2023/05/30 06:18:00;;;;;;;12.20;7.80;;;;;;;-128.00;-1.00;-1.00;105419;1253;1005467;-78
2023/05/30 06:20:26;;;;;;;17.10;9.30;;;;;;;-128.00;-1.00;-1.00;105383;1253;1005441;-78
2023/05/30 06:22:52;;;;;;;14.00;8.70;;;;;;;-128.00;-1.00;-1.00;105455;1253;1004333;-78
2023/05/30 06:25:19;;;;;;;16.50;9.20;;;;;;;-128.00;-1.00;-1.00;105370;1253;1003947;-80
2023/05/30 06:27:45;;;;;;;14.80;9.60;;;;;;;-128.00;-1.00;-1.00;105399;1253;1005311;-80
2023/05/30 06:30:12;;;;;;;16.70;8.60;;;;;;;-128.00;-1.00;-1.00;105515;1252;1004152;-80
2023/05/30 06:32:38;;;;;;;16.30;8.60;;;;;;;-128.00;-1.00;-1.00;105381;1253;1004442;-78
2023/05/30 06:35:05;;;;;;;13.60;8.50;;;;;;;-128.00;-1.00;-1.00;105269;1254;1004853;-79
2023/05/30 06:37:33;;;;;;;14.80;8.80;;;;;;;-128.00;-1.00;-1.00;105456;1253;1004214;-80
2023/05/30 06:39:59;;;;;;;12.10;8.60;;;;;;;-128.00;-1.00;-1.00;105426;1254;1004329;-80
2023/05/30 06:42:25;;;;;;;12.70;8.00;;;;;;;-128.00;-1.00;-1.00;105427;1253;1004239;-78
2023/05/30 06:44:52;;;;;;;15.20;8.80;;;;;;;-128.00;-1.00;-1.00;105455;1253;1004733;-79
2023/05/30 06:47:18;;;;;;;14.60;9.20;;;;;;;-128.00;-1.00;-1.00;105438;1253;1005073;-80
2023/05/30 06:49:45;;;;;;;13.40;9.00;;;;;;;-128.00;-1.00;-1.00;105290;1252;1003862;-80
2023/05/30 06:52:11;;;;;;;15.70;9.20;;;;;;;-128.00;-1.00;-1.00;105488;1253;1003841;-79
2023/05/30 06:54:38;;;;;;;18.10;9.90;;;;;;;-128.00;-1.00;-1.00;105455;1253;1004454;-79
2023/05/30 06:57:05;;;;;;;16.20;9.50;;;;;;;-128.00;-1.00;-1.00;105512;1253;1003227;-78
2023/05/30 06:59:33;;;;;;;15.00;10.00;;;;;;;-128.00;-1.00;-1.00;105462;1253;1004229;-79
2023/05/30 07:01:59;;;;;;;16.60;9.70;;;;;;;-128.00;-1.00;-1.00;105480;1253;1004454;-78
2023/05/30 07:04:26;;;;;;;17.30;9.80;;;;;;;-128.00;-1.00;-1.00;105501;1253;1004910;-80
2023/05/30 07:06:53;;;;;;;17.50;9.70;;;;;;;-128.00;-1.00;-1.00;105514;1253;1004031;-79
2023/05/30 07:09:19;;;;;;;18.60;9.30;;;;;;;-128.00;-1.00;-1.00;105354;1253;1005891;-78
2023/05/30 07:11:46;;;;;;;16.30;8.80;;;;;;;-128.00;-1.00;-1.00;105485;1253;1005295;-80
2023/05/30 07:14:12;;;;;;;15.50;8.90;;;;;;;-128.00;-1.00;-1.00;105373;1253;1006068;-79
2023/05/30 07:16:39;;;;;;;15.90;9.20;;;;;;;-128.00;-1.00;-1.00;105454;1252;1005131;-80
2023/05/30 07:19:05;;;;;;;14.90;9.40;;;;;;;-128.00;-1.00;-1.00;105463;1253;1004030;-80
2023/05/30 07:21:32;;;;;;;17.80;9.40;;;;;;;-128.00;-1.00;-1.00;105486;1253;1004705;-79
2023/05/30 07:23:58;;;;;;;19.60;8.20;;;;;;;-128.00;-1.00;-1.00;105438;1254;1004885;-78
2023/05/30 07:26:25;;;;;;;12.20;8.30;;;;;;;-128.00;-1.00;-1.00;105460;1253;1004929;-80
2023/05/30 07:28:52;;;;;;;16.80;9.20;;;;;;;-128.00;-1.00;-1.00;105455;1253;1004742;-79
2023/05/30 07:31:18;;;;;;;17.50;9.00;;;;;;;-128.00;-1.00;-1.00;105349;1254;1004528;-80
2023/05/30 07:33:45;;;;;;;15.10;8.90;;;;;;;-128.00;-1.00;-1.00;105411;1253;1004245;-81
2023/05/30 07:36:12;;;;;;;16.10;8.70;;;;;;;-128.00;-1.00;-1.00;105462;1253;1003843;-81
2023/05/30 07:38:38;;;;;;;20.10;8.60;;;;;;;-128.00;-1.00;-1.00;105499;1253;1003885;-79
2023/05/30 07:41:05;;;;;;;12.90;7.50;;;;;;;-128.00;-1.00;-1.00;105297;1253;1004220;-81
2023/05/30 07:43:31;;;;;;;14.90;7.60;;;;;;;-128.00;-1.00;-1.00;105369;1253;1004587;-79
2023/05/30 07:45:57;;;;;;;10.90;7.90;;;;;;;-128.00;-1.00;-1.00;105359;1254;1004494;-81
2023/05/30 07:48:24;;;;;;;14.20;8.40;;;;;;;-128.00;-1.00;-1.00;105489;1253;1004736;-79
2023/05/30 07:50:50;;;;;;;16.90;8.30;;;;;;;-128.00;-1.00;-1.00;105512;1251;1004742;-79
2023/05/30 07:53:17;;;;;;;14.30;8.20;;;;;;;-128.00;-1.00;-1.00;105486;1253;1004624;-80
2023/05/30 07:55:43;;;;;;;10.60;6.80;;;;;;;-128.00;-1.00;-1.00;105464;1253;1003967;-78
2023/05/30 07:58:10;;;;;;;18.10;7.80;;;;;;;-128.00;-1.00;-1.00;105433;1253;1004121;-79
2023/05/30 08:00:37;;;;;;;15.60;7.20;;;;;;;-128.00;-1.00;-1.00;105528;1253;1003814;-79
2023/05/30 08:03:03;;;;;;;19.30;8.70;;;;;;;-128.00;-1.00;-1.00;105419;1253;1005774;-80
2023/05/30 08:05:30;;;;;;;15.80;7.20;;;;;;;-128.00;-1.00;-1.00;105453;1253;1005105;-81
2023/05/30 08:07:56;;;;;;;14.50;7.70;;;;;;;-128.00;-1.00;-1.00;105463;1253;1003965;-81
2023/05/30 08:10:23;;;;;;;17.90;8.10;;;;;;;-128.00;-1.00;-1.00;105483;1253;1003960;-79
2023/05/30 08:12:49;;;;;;;12.40;7.10;;;;;;;-128.00;-1.00;-1.00;105499;1256;1004288;-81
2023/05/30 08:15:15;;;;;;;12.10;6.20;;;;;;;-128.00;-1.00;-1.00;105444;1253;1005819;-80
2023/05/30 08:17:44;;;;;;;18.70;6.20;;;;;;;-128.00;-1.00;-1.00;105458;1253;1004430;-79
2023/05/30 08:20:12;;;;;;;;;;;;;;;-128.00;-1.00;-1.00;105447;1253;1003942;-80
2023/05/30 08:22:38;;;;;;;11.10;7.40;;;;;;;-128.00;-1.00;-1.00;105442;1253;1004337;-81
2023/05/30 08:25:05;;;;;;;13.80;6.10;;;;;;;-128.00;-1.00;-1.00;105470;1253;1003303;-81
2023/05/30 08:27:32;;;;;;;14.80;6.30;;;;;;;-128.00;-1.00;-1.00;105455;1253;1003579;-80
2023/05/30 08:29:59;;;;;;;21.20;6.30;;;;;;;-128.00;-1.00;-1.00;105429;1252;1003763;-81
2023/05/30 08:32:27;;;;;;;11.70;6.10;;;;;;;-128.00;-1.00;-1.00;105488;1253;1006878;-79
2023/05/30 08:34:53;;;;;;;12.60;7.00;;;;;;;-128.00;-1.00;-1.00;105433;1253;1004108;-79
2023/05/30 08:37:19;;;;;;;18.20;7.80;;;;;;;-128.00;-1.00;-1.00;105439;1253;1003821;-80
2023/05/30 08:39:46;;;;;;;16.20;6.80;;;;;;;-128.00;-1.00;-1.00;105421;1253;1003923;-81
2023/05/30 08:42:13;;;;;;;13.10;6.80;;;;;;;-128.00;-1.00;-1.00;105462;1253;1004461;-81
2023/05/30 08:44:40;;;;;;;9.60;5.70;;;;;;;-128.00;-1.00;-1.00;105480;1253;1004468;-81
2023/05/30 08:47:11;;;;;;;9.90;6.20;;;;;;;-128.00;-1.00;-1.00;105438;1253;1003889;-81
2023/05/30 08:49:40;;;;;;;12.20;6.90;;;;;;;-128.00;-1.00;-1.00;105399;1253;1058415;-81
2023/05/30 08:52:07;;;;;;;15.90;6.70;;;;;;;-128.00;-1.00;-1.00;105490;1253;1058252;-81
2023/05/30 08:54:41;;;;;;;17.10;7.40;;;;;;;-128.00;-1.00;-1.00;105327;1252;1005013;-79
2023/05/30 08:57:16;;;;;;;24.90;14.70;;;;;;;-128.00;-1.00;-1.00;105363;1253;1046978;-82
2023/05/30 08:59:43;;;;;;;13.60;7.30;;;;;;;-128.00;-1.00;-1.00;105468;1253;1061560;-81
2023/05/30 09:02:09;;;;;;;11.80;6.30;;;;;;;-128.00;-1.00;-1.00;105362;1254;1004972;-79
2023/05/30 09:04:36;;;;;;;10.10;5.90;;;;;;;-128.00;-1.00;-1.00;105343;1253;1004792;-79
2023/05/30 09:07:02;;;;;;;13.10;6.50;;;;;;;-128.00;-1.00;-1.00;105419;1253;1004732;-79
2023/05/30 09:09:30;;;;;;;12.30;6.50;;;;;;;-128.00;-1.00;-1.00;105251;1253;1005024;-79
2023/05/30 09:11:56;;;;;;;11.20;5.40;;;;;;;-128.00;-1.00;-1.00;105208;1253;1004838;-81
2023/05/30 09:14:22;;;;;;;7.60;5.40;;;;;;;-128.00;-1.00;-1.00;105398;1253;1004574;-81
2023/05/30 09:16:49;;;;;;;12.80;5.10;;;;;;;-128.00;-1.00;-1.00;105444;1253;1003643;-81
2023/05/30 09:19:16;;;;;;;14.70;6.50;;;;;;;-128.00;-1.00;-1.00;105447;1254;1004286;-79
2023/05/30 09:21:43;;;;;;;9.00;6.30;;;;;;;-128.00;-1.00;-1.00;105344;1253;1004370;-79
2023/05/30 09:24:09;;;;;;;13.60;6.90;;;;;;;-128.00;-1.00;-1.00;105375;1253;1003812;-79
2023/05/30 09:26:35;;;;;;;14.90;7.20;;;;;;;-128.00;-1.00;-1.00;105408;1252;1004003;-79
2023/05/30 09:29:12;;;;;;;13.00;6.90;;;;;;;-128.00;-1.00;-1.00;105448;1252;1003774;-81
2023/05/30 09:31:38;;;;;;;13.40;7.70;;;;;;;-128.00;-1.00;-1.00;105398;1253;1044775;-79
2023/05/30 09:34:07;;;;;;;13.80;8.10;;;;;;;-128.00;-1.00;-1.00;105319;1253;1004733;-80
2023/05/30 09:36:35;;;;;;;13.00;6.40;;;;;;;-128.00;-1.00;-1.00;105423;1253;1062840;-82
2023/05/30 09:39:04;;;;;;;15.10;7.70;;;;;;;-128.00;-1.00;-1.00;105396;1253;1004179;-79
2023/05/30 09:41:31;;;;;;;10.00;6.60;;;;;;;-128.00;-1.00;-1.00;105450;1253;1058311;-81
2023/05/30 09:43:57;;;;;;;16.20;7.40;;;;;;;-128.00;-1.00;-1.00;105434;1252;1005968;-80
2023/05/30 09:46:26;;;;;;;11.10;6.80;;;;;;;-128.00;-1.00;-1.00;105385;1253;1004500;-81
2023/05/30 09:48:53;;;;;;;13.40;6.90;;;;;;;-128.00;-1.00;-1.00;105476;1253;1061573;-81
2023/05/30 09:51:21;;;;;;;16.10;7.10;;;;;;;-128.00;-1.00;-1.00;105425;1253;1004297;-80
2023/05/30 09:54:00;;;;;;;14.30;8.50;;;;;;;-128.00;-1.00;-1.00;105586;1253;1058916;-79
2023/05/30 09:56:32;;;;;;;16.40;8.20;;;;;;;-128.00;-1.00;-1.00;105547;1253;1044418;-79
2023/05/30 09:59:06;;;;;;;14.30;7.10;;;;;;;-128.00;-1.00;-1.00;105467;1253;1047328;-79
2023/05/30 10:01:59;;;;;;;15.60;7.60;;;;;;;-128.00;-1.00;-1.00;105477;1254;1061885;-79
2023/05/30 10:04:26;;;;;;;12.30;6.30;;;;;;;-128.00;-1.00;-1.00;105292;1253;1056961;-80
2023/05/30 10:06:53;;;;;;;10.50;6.40;;;;;;;-128.00;-1.00;-1.00;105488;1253;1004455;-81
2023/05/30 10:09:20;;;;;;;14.30;6.10;;;;;;;-128.00;-1.00;-1.00;105381;1252;1004506;-79
2023/05/30 10:11:47;;;;;;;12.00;5.80;;;;;;;-128.00;-1.00;-1.00;105363;1253;1005053;-80
2023/05/30 10:14:13;;;;;;;13.30;5.80;;;;;;;-128.00;-1.00;-1.00;105474;1253;1004467;-81
2023/05/30 10:16:47;;;;;;;10.50;6.10;;;;;;;-128.00;-1.00;-1.00;105488;1254;1004282;-81
2023/05/30 10:19:16;;;;;;;16.60;6.20;;;;;;;-128.00;-1.00;-1.00;105371;1253;1059423;-81
2023/05/30 10:21:43;;;;;;;10.60;5.30;;;;;;;-128.00;-1.00;-1.00;105452;1253;1045004;-79
2023/05/30 10:24:10;;;;;;;9.60;4.70;;;;;;;-128.00;-1.00;-1.00;105242;1254;1004515;-80
2023/05/30 10:26:39;;;;;;;9.00;5.20;;;;;;;-128.00;-1.00;-1.00;105341;1255;1004759;-81
2023/05/30 10:29:07;;;;;;;16.10;5.50;;;;;;;-128.00;-1.00;-1.00;105491;1252;1058505;-79
2023/05/30 10:31:34;;;;;;;16.20;4.70;;;;;;;-128.00;-1.00;-1.00;105167;1254;1004994;-80
2023/05/30 10:34:01;;;;;;;9.90;4.20;;;;;;;-128.00;-1.00;-1.00;105514;1253;1004357;-81
2023/05/30 10:36:28;;;;;;;7.90;4.10;;;;;;;-128.00;-1.00;-1.00;105354;1256;1004160;-80
2023/05/30 10:39:05;;;;;;;8.60;4.00;;;;;;;-128.00;-1.00;-1.00;105359;1253;1005249;-81
2023/05/30 10:41:48;;;;;;;7.70;4.50;;;;;;;-128.00;-1.00;-1.00;105323;1253;1060305;-81
2023/05/30 10:44:26;;;;;;;7.80;4.40;;;;;;;-128.00;-1.00;-1.00;105288;1253;1057916;-81
2023/05/30 10:47:17;;;;;;;10.40;4.30;;;;;;;-128.00;-1.00;-1.00;105430;1253;1044554;-81
2023/05/30 10:49:43;;;;;;;10.10;4.10;;;;;;;-128.00;-1.00;-1.00;105512;1253;1046690;-79
2023/05/30 10:52:10;;;;;;;7.50;4.00;;;;;;;-128.00;-1.00;-1.00;105375;1253;1003887;-81
2023/05/30 10:54:37;;;;;;;7.40;4.30;;;;;;;-128.00;-1.00;-1.00;105501;1253;1004563;-79
2023/05/30 10:57:23;;;;;;;9.20;4.00;;;;;;;-128.00;-1.00;-1.00;105562;1253;1004837;-79
2023/05/30 10:59:50;;;;;;;8.90;3.90;;;;;;;-128.00;-1.00;-1.00;105509;1253;1044309;-81
2023/05/30 11:02:20;;;;;;;9.00;3.90;;;;;;;-128.00;-1.00;-1.00;105496;1254;1004435;-79
2023/05/30 11:04:50;;;;;;;8.00;4.10;;;;;;;-128.00;-1.00;-1.00;105449;1253;1062660;-79
2023/05/30 11:07:17;;;;;;;5.70;3.40;;;;;;;-128.00;-1.00;-1.00;105495;1254;1058167;-81
2023/05/30 11:10:06;;;;;;;8.30;3.40;;;;;;;-128.00;-1.00;-1.00;105489;1252;1004372;-80
2023/05/30 11:12:33;;;;;;;7.60;3.00;;;;;;;-128.00;-1.00;-1.00;105474;1252;1044921;-81